Time;durP1;ratioP1;P1;durP2;ratioP2;P2;SDS_P1;SDS_P2;PMS_P1;PMS_P2;Temp;Humidity;BMP_temperature;BMP_pressure;BME280_temperature;BME280_humidity;BME280_pressure;Samples;Min_cycle;Max_cycle;Signal;HPM_P1;HPM_P2
2021/04/24 00:00:12;;;;;;;7.53;3.72;;;5.20;99.90;;;6.31;64.19;101756.38;4755824;30;20101;-83
2021/04/24 00:02:44;;;;;;;11.63;3.58;;;5.10;99.90;;;6.32;63.67;101749.69;4755913;30;20442;-82
2021/04/24 00:05:19;;;;;;;8.57;3.67;;;5.20;99.90;;;6.36;63.14;101749.91;4770259;30;20032;-83
2021/04/24 00:07:45;;;;;;;10.32;3.88;;;5.20;99.90;;;6.29;63.65;101752.25;4756169;30;20051;-82
2021/04/24 00:10:15;;;;;;;8.98;3.20;;;5.20;99.90;;;6.20;63.78;101757.66;4761790;30;20040;-83
2021/04/24 00:12:43;;;;;;;7.60;2.90;;;5.10;99.90;;;6.16;63.90;101753.88;4760176;30;20168;-83
2021/04/24 00:15:14;;;;;;;14.10;3.30;;;5.00;99.90;;;6.11;63.79;101755.88;4758521;30;20039;-82
2021/04/24 00:17:45;;;;;;;7.10;3.08;;;5.00;99.90;;;6.13;64.05;101740.56;4756604;30;20036;-83
2021/04/24 00:20:21;;;;;;;8.05;2.53;;;5.00;99.90;;;6.09;63.98;101756.19;4771555;30;20497;-82
2021/04/24 00:22:50;;;;;;;7.03;3.13;;;5.00;99.90;;;6.04;63.38;101753.47;4756343;30;20090;-82
2021/04/24 00:25:18;;;;;;;7.78;3.03;;;4.90;99.90;;;6.03;63.80;101749.06;4781341;30;20157;-83
2021/04/24 00:27:45;;;;;;;6.20;2.85;;;4.90;99.90;;;6.02;63.47;101755.75;4774321;30;20471;-82
2021/04/24 00:30:14;;;;;;;5.05;2.80;;;4.90;99.90;;;5.95;63.50;101757.22;4774308;30;20046;-83
2021/04/24 00:32:41;;;;;;;5.88;2.92;;;4.90;99.90;;;5.91;63.18;101750.66;4775522;30;20043;-83
2021/04/24 00:35:09;;;;;;;7.53;2.50;;;4.80;99.90;;;5.90;62.94;101743.47;4775006;30;20165;-83
2021/04/24 00:37:35;;;;;;;6.85;2.20;;;4.90;99.90;;;5.93;62.58;101740.91;4775279;30;20131;-83
2021/04/24 00:40:02;;;;;;;6.45;2.80;;;4.80;99.90;;;5.90;62.89;101751.78;4793264;30;20463;-84
2021/04/24 00:42:28;;;;;;;4.93;2.78;;;4.80;99.90;;;5.81;63.04;101751.59;4781788;30;20545;-82
2021/04/24 00:44:55;;;;;;;7.35;3.40;;;4.70;99.90;;;5.75;62.94;101752.78;4776968;30;20047;-81
2021/04/24 00:47:24;;;;;;;6.10;2.55;;;4.70;99.90;;;5.72;63.42;101756.16;4788515;30;20088;-82
2021/04/24 00:49:51;;;;;;;5.55;2.45;;;4.60;99.90;;;5.77;62.62;101748.59;4772951;30;20100;-82
2021/04/24 00:52:19;;;;;;;9.32;3.05;;;4.60;99.90;;;5.78;62.34;101749.41;4772733;30;20037;-79
2021/04/24 00:54:46;;;;;;;6.90;2.92;;;4.70;99.90;;;5.73;62.32;101749.50;4772547;30;20404;-80
2021/04/24 00:57:13;;;;;;;4.93;2.35;;;4.60;99.90;;;5.66;62.76;101755.41;4773327;30;20101;-81
2021/04/24 00:59:41;;;;;;;8.95;2.17;;;4.50;99.90;;;5.55;62.83;101748.38;4773473;30;20047;-80
2021/04/24 01:02:10;;;;;;;6.68;2.63;;;4.40;99.90;;;5.52;62.99;101750.91;4772901;30;20080;-82
2021/04/24 01:04:37;;;;;;;9.25;2.47;;;4.40;99.90;;;5.46;63.32;101746.56;4772768;30;20047;-80
2021/04/24 01:07:06;;;;;;;5.57;2.55;;;4.40;99.90;;;5.43;62.92;101749.88;4773906;30;20035;-83
2021/04/24 01:09:33;;;;;;;9.82;2.10;;;4.30;99.90;;;5.40;62.51;101751.31;4773334;30;20027;-82
2021/04/24 01:12:00;;;;;;;5.55;2.28;;;4.20;99.90;;;5.41;62.77;101750.22;4789669;30;20043;-80
2021/04/24 01:14:26;;;;;;;6.10;2.13;;;4.20;99.90;;;5.41;63.00;101741.91;4773988;30;20085;-82
2021/04/24 01:16:57;;;;;;;4.38;2.08;;;4.10;99.90;;;5.31;62.50;101740.09;4774383;30;20053;-84
2021/04/24 01:19:26;;;;;;;7.00;2.40;;;4.10;99.90;;;5.24;63.02;101739.63;4789218;30;20043;-82
2021/04/24 01:22:05;;;;;;;6.20;2.17;;;4.00;99.90;;;5.15;63.54;101733.09;4774836;30;20545;-83
2021/04/24 01:24:33;;;;;;;6.15;2.25;;;3.90;99.90;;;5.18;63.37;101734.44;4774502;30;20039;-82
2021/04/24 01:27:00;;;;;;;11.10;2.80;;;3.90;99.90;;;5.21;63.18;101734.66;4789433;30;20456;-84
2021/04/24 01:29:27;;;;;;;6.85;2.55;;;3.90;99.90;;;5.27;62.29;101732.66;4777218;30;20046;-84
2021/04/24 01:31:54;;;;;;;5.82;2.10;;;4.00;99.90;;;5.28;62.41;101737.06;4782927;30;20086;-82
2021/04/24 01:34:20;;;;;;;5.80;2.67;;;4.00;99.90;;;5.21;62.63;101728.28;4796309;30;20051;-81
2021/04/24 01:36:46;;;;;;;6.75;2.72;;;3.90;99.90;;;5.18;62.78;101724.19;4780339;30;20414;-85
2021/04/24 01:39:12;;;;;;;7.32;2.97;;;3.90;99.90;;;5.12;62.71;101725.38;4780404;30;20043;-83
2021/04/24 01:41:39;;;;;;;9.45;2.83;;;3.90;99.90;;;5.16;62.54;101722.84;4795152;30;20035;-84
2021/04/24 01:44:05;;;;;;;5.95;2.55;;;3.80;99.90;;;5.22;62.88;101728.00;4772050;30;20161;-82
2021/04/24 01:46:32;;;;;;;7.60;2.70;;;3.90;99.90;;;5.20;62.87;101712.81;4772189;30;20035;-82
2021/04/24 01:48:58;;;;;;;10.45;3.25;;;3.80;99.90;;;5.15;62.99;101713.69;4772646;30;20039;-82
2021/04/24 01:51:23;;;;;;;6.78;2.50;;;3.80;99.90;;;5.09;63.30;101719.59;4772225;30;20041;-82
2021/04/24 01:53:54;;;;;;;7.78;3.15;;;3.80;99.90;;;5.11;63.46;101715.41;4772820;30;20055;-82
2021/04/24 01:56:21;;;;;;;6.10;2.90;;;3.80;99.90;;;5.14;63.42;101720.34;4771827;30;20041;-83
2021/04/24 01:58:47;;;;;;;9.73;2.97;;;3.80;99.90;;;5.18;63.96;101712.28;4771471;30;20046;-82
2021/04/24 02:01:13;;;;;;;6.65;2.42;;;3.80;99.90;;;5.19;63.48;101713.94;4771640;30;20464;-82
2021/04/24 02:03:39;;;;;;;6.40;3.00;;;3.90;99.90;;;5.18;63.55;101715.03;4787239;30;20500;-83
2021/04/24 02:06:05;;;;;;;8.18;3.58;;;3.90;99.90;;;5.21;63.80;101715.28;4771347;30;20086;-82
2021/04/24 02:08:42;;;;;;;12.15;2.63;;;3.80;99.90;;;5.20;63.68;101712.81;4786414;30;20043;-82
2021/04/24 02:11:11;;;;;;;9.00;2.95;;;3.90;99.90;;;5.19;64.04;101717.53;4787683;30;20389;-82
2021/04/24 02:13:43;;;;;;;11.50;2.65;;;3.90;99.90;;;5.19;63.71;101711.16;4773293;30;20133;-82
2021/04/24 02:16:14;;;;;;;9.27;2.88;;;4.00;99.90;;;5.25;63.76;101707.19;4772094;30;20409;-82
2021/04/24 02:18:40;;;;;;;6.65;2.38;;;4.00;99.90;;;5.15;63.83;101716.47;4773877;30;20042;-84
2021/04/24 02:21:07;;;;;;;6.97;2.72;;;3.90;99.90;;;5.03;64.23;101724.38;4773068;30;20054;-82
2021/04/24 02:23:38;;;;;;;5.72;2.10;;;3.80;99.90;;;4.99;64.44;101719.72;4771588;30;20114;-83
2021/04/24 02:26:10;;;;;;;5.72;2.95;;;3.70;99.90;;;5.02;64.52;101721.88;4788047;30;20079;-82
2021/04/24 02:28:36;;;;;;;6.35;2.45;;;3.70;99.90;;;5.00;64.57;101730.50;4786882;30;20042;-82
2021/04/24 02:31:03;;;;;;;7.60;2.45;;;3.70;99.90;;;4.96;65.04;101725.84;4771975;30;20038;-80
2021/04/24 02:33:29;;;;;;;8.10;2.90;;;3.70;99.90;;;4.90;65.58;101736.16;4786711;30;20491;-82
2021/04/24 02:36:05;;;;;;;5.15;2.67;;;3.60;99.90;;;4.84;65.60;101731.78;4787386;30;20453;-82
2021/04/24 02:38:37;;;;;;;;;;;3.60;99.90;;;4.84;65.95;101739.28;4773398;30;20039;-83
2021/04/24 02:41:05;;;;;;;8.15;2.50;;;3.60;99.90;;;4.74;66.42;101734.66;4788535;30;19913;-83
2021/04/24 02:43:33;;;;;;;6.22;3.17;;;3.60;99.90;;;4.71;66.90;101732.50;4787597;30;20406;-82
2021/04/24 02:45:59;;;;;;;4.97;3.05;;;3.40;99.90;;;4.76;66.84;101738.78;4788235;30;20468;-82
2021/04/24 02:48:25;;;;;;;8.38;2.97;;;3.50;99.90;;;4.82;66.78;101736.78;4788378;30;20506;-83
2021/04/24 02:50:55;;;;;;;7.55;2.90;;;3.50;99.90;;;4.86;66.70;101739.78;4774231;30;20361;-83
2021/04/24 02:53:21;;;;;;;7.28;3.30;;;3.60;99.90;;;4.89;66.81;101741.97;4789741;30;20088;-84
2021/04/24 02:55:47;;;;;;;10.45;3.08;;;3.60;99.90;;;4.87;67.11;101735.91;4788996;30;20122;-83
2021/04/24 02:58:12;;;;;;;12.00;4.95;;;3.60;99.90;;;4.91;66.59;101736.97;4793017;30;20058;-85
2021/04/24 03:00:39;;;;;;;11.55;3.35;;;3.60;99.90;;;4.90;67.03;101740.88;4774631;30;20154;-82
2021/04/24 03:03:14;;;;;;;10.98;3.22;;;3.60;99.90;;;4.86;66.79;101735.09;4792265;30;20060;-84
2021/04/24 03:05:42;;;;;;;;;;;3.60;99.90;;;4.90;67.57;101749.16;4795767;30;20035;-80
2021/04/24 03:08:10;;;;;;;9.10;3.28;;;3.60;99.90;;;4.88;67.13;101743.91;4775402;30;20270;-82
2021/04/24 03:10:39;;;;;;;7.78;4.03;;;3.60;99.90;;;4.88;67.50;101737.56;4777888;30;20036;-80
2021/04/24 03:13:09;;;;;;;6.75;3.65;;;3.60;99.90;;;4.85;67.28;101744.50;4792375;30;20031;-83
2021/04/24 03:15:35;;;;;;;7.57;3.85;;;3.50;99.90;;;4.84;68.00;101747.56;4792939;30;20041;-82
2021/04/24 03:18:02;;;;;;;8.57;3.03;;;3.50;99.90;;;4.81;68.20;101742.63;4790918;30;20039;-81
2021/04/24 03:20:28;;;;;;;7.38;3.53;;;3.50;99.90;;;4.84;68.09;101742.88;4790202;30;20058;-85
2021/04/24 03:22:58;;;;;;;8.02;4.25;;;3.60;99.90;;;4.86;68.31;101745.31;4800719;30;20035;-84
2021/04/24 03:25:26;;;;;;;13.13;4.40;;;3.60;99.90;;;4.86;68.36;101739.78;4791983;30;20019;-82
2021/04/24 03:27:56;;;;;;;14.10;4.00;;;3.60;99.90;;;4.89;68.23;101733.66;4806692;30;20066;-82
2021/04/24 03:30:23;;;;;;;13.63;4.68;;;3.60;99.90;;;4.83;68.42;101741.22;4807491;30;20036;-86
2021/04/24 03:32:49;;;;;;;13.43;4.60;;;3.60;99.90;;;4.72;68.79;101737.72;4800553;30;20102;-82
2021/04/24 03:35:15;;;;;;;8.15;4.38;;;3.50;99.90;;;4.63;69.58;101733.94;4783911;30;20050;-81
2021/04/24 03:37:40;;;;;;;9.23;4.78;;;3.50;99.90;;;4.61;69.60;101732.59;4775302;30;20043;-84
2021/04/24 03:40:08;;;;;;;18.63;4.82;;;3.50;99.90;;;4.59;69.66;101734.84;4791371;30;20491;-81
2021/04/24 03:42:42;;;;;;;11.80;4.97;;;3.50;99.90;;;4.59;69.76;101737.59;4775418;30;20032;-81
2021/04/24 03:45:19;;;;;;;8.18;4.20;;;3.40;99.90;;;4.54;70.07;101726.56;4789917;30;20039;-83
2021/04/24 03:47:54;;;;;;;12.07;5.25;;;3.40;99.90;;;4.47;70.44;101732.44;4775062;30;20062;-83
2021/04/24 03:50:23;;;;;;;11.07;4.68;;;3.40;99.90;;;4.46;70.36;101735.50;4769580;30;20374;-82
2021/04/24 03:52:52;;;;;;;8.65;4.88;;;3.30;99.90;;;4.38;70.50;101736.97;4793121;30;20035;-82
2021/04/24 03:55:20;;;;;;;15.68;4.97;;;3.30;99.90;;;4.35;71.17;101739.47;4786348;29;20028;-84
2021/04/24 03:57:48;;;;;;;11.18;4.80;;;3.10;99.90;;;4.30;71.01;101747.81;4775105;30;20492;-82
2021/04/24 04:00:27;;;;;;;15.32;5.15;;;3.20;99.90;;;4.27;71.25;101748.41;4776226;30;20039;-81
2021/04/24 04:02:59;;;;;;;14.80;4.90;;;3.10;99.90;;;4.19;71.40;101747.06;4791075;30;20099;-82
2021/04/24 04:05:36;;;;;;;11.50;4.60;;;3.00;99.90;;;4.08;71.66;101740.78;4775590;30;20038;-83
2021/04/24 04:08:05;;;;;;;11.45;5.72;;;3.00;99.90;;;4.02;72.14;101746.66;4789746;30;20035;-82
2021/04/24 04:10:33;;;;;;;13.18;4.63;;;2.90;99.90;;;3.95;72.79;101749.75;4794923;30;20512;-85
2021/04/24 04:13:01;;;;;;;9.25;4.20;;;2.80;99.90;;;3.83;72.88;101752.03;4793888;30;20072;-84
2021/04/24 04:15:28;;;;;;;7.18;3.85;;;2.70;99.90;;;3.70;73.85;101756.25;4775718;30;20451;-82
2021/04/24 04:18:25;;;;;;;12.45;4.97;;;2.60;99.90;;;3.62;74.11;101748.59;4798159;30;20043;-83
2021/04/24 04:20:56;;;;;;;11.95;4.30;;;2.50;99.90;;;3.55;74.38;101755.53;4775014;30;20039;-83
2021/04/24 04:23:25;;;;;;;11.68;4.15;;;2.50;99.90;;;3.55;74.72;101761.06;4789566;30;20035;-83
2021/04/24 04:25:53;;;;;;;10.70;4.97;;;2.40;99.90;;;3.55;74.93;101761.06;4789852;30;20064;-82
2021/04/24 04:28:21;;;;;;;10.02;4.57;;;2.50;99.90;;;3.54;74.61;101757.47;4775117;30;20031;-82
2021/04/24 04:30:50;;;;;;;11.57;5.20;;;2.40;99.90;;;3.58;75.10;101755.78;4774725;30;20054;-84
2021/04/24 04:33:17;;;;;;;13.43;5.57;;;2.50;99.90;;;3.67;74.72;101761.53;4774469;30;20126;-84
2021/04/24 04:35:43;;;;;;;13.50;5.15;;;2.50;99.90;;;3.83;74.12;101753.97;4790692;30;20122;-81
2021/04/24 04:38:10;;;;;;;12.70;4.70;;;2.50;99.90;;;3.91;73.80;101754.22;4775686;30;20380;-84
2021/04/24 04:40:37;;;;;;;16.17;5.40;;;2.60;99.90;;;3.91;73.88;101754.22;4790983;30;20043;-83
2021/04/24 04:43:06;;;;;;;9.38;5.20;;;2.60;99.90;;;3.78;74.54;101746.56;4777458;30;20035;-83
2021/04/24 04:45:34;;;;;;;15.23;5.60;;;2.60;99.90;;;3.80;74.79;101755.38;4779980;30;20061;-86
2021/04/24 04:48:00;;;;;;;9.23;4.68;;;2.70;99.90;;;3.76;74.69;101753.50;4793749;30;20056;-84
2021/04/24 04:50:33;;;;;;;8.75;3.72;;;2.70;99.90;;;3.71;74.93;101757.09;4794798;30;20457;-85
2021/04/24 04:53:00;;;;;;;12.10;4.70;;;2.60;99.90;;;3.70;75.67;101749.91;4780646;30;20543;-85
2021/04/24 04:55:27;;;;;;;9.18;4.32;;;2.60;99.90;;;3.76;75.54;101756.25;4779099;30;20039;-83
2021/04/24 04:57:54;;;;;;;15.32;5.32;;;2.60;99.90;;;3.72;75.64;101748.50;4791094;30;20031;-84
2021/04/24 05:00:24;;;;;;;10.20;4.38;;;2.60;99.90;;;3.77;75.58;101755.94;4793703;30;20039;-85
2021/04/24 05:02:51;;;;;;;9.40;4.70;;;2.60;99.90;;;3.79;75.53;101752.91;4790554;30;20122;-84
2021/04/24 05:05:19;;;;;;;7.40;4.47;;;2.60;99.90;;;3.81;75.98;101756.22;4774728;30;20083;-82
2021/04/24 05:07:49;;;;;;;7.13;3.80;;;2.60;99.90;;;3.81;75.92;101751.50;4774652;30;20058;-82
2021/04/24 05:10:17;;;;;;;10.27;4.78;;;2.60;99.90;;;3.93;75.47;101756.66;4756440;30;20036;-83
2021/04/24 05:12:44;;;;;;;10.07;4.80;;;2.60;99.90;;;4.07;75.00;101752.16;4756969;30;20040;-84
2021/04/24 05:15:13;;;;;;;10.00;5.10;;;2.70;99.90;;;4.19;75.01;101758.13;4774183;30;20040;-83
2021/04/24 05:17:39;;;;;;;10.15;4.60;;;2.80;99.90;;;4.32;74.64;101751.13;4755422;30;20482;-84
2021/04/24 05:20:07;;;;;;;11.00;4.70;;;2.90;99.90;;;4.49;74.54;101752.34;4756074;30;20081;-84
2021/04/24 05:22:34;;;;;;;12.02;6.07;;;3.00;99.90;;;4.73;73.87;101767.06;4770603;30;20039;-83
2021/04/24 05:25:01;;;;;;;8.80;4.25;;;3.20;99.90;;;4.95;73.25;101755.47;4755571;30;20130;-81
2021/04/24 05:27:27;;;;;;;10.93;4.25;;;3.40;99.90;;;5.14;73.26;101761.06;4770104;30;20131;-81
2021/04/24 05:29:53;;;;;;;12.77;4.93;;;3.60;99.90;;;5.26;72.37;101762.31;4784538;30;20032;-84
2021/04/24 05:32:19;;;;;;;9.40;4.57;;;3.70;99.90;;;5.43;72.09;101763.75;4757237;30;20093;-81
2021/04/24 05:34:47;;;;;;;10.20;4.45;;;3.80;99.90;;;5.53;72.23;101756.13;4773037;30;20031;-82
2021/04/24 05:37:15;;;;;;;14.90;5.60;;;4.00;99.90;;;5.71;70.61;101763.66;4789289;30;20039;-83
2021/04/24 05:39:41;;;;;;;11.10;4.35;;;4.10;99.90;;;5.92;70.18;101760.59;4776290;30;20035;-82
2021/04/24 05:42:10;;;;;;;11.15;5.72;;;4.30;99.90;;;6.17;69.31;101763.81;4787450;30;20372;-83
2021/04/24 05:44:37;;;;;;;18.27;6.97;;;4.40;99.90;;;6.41;68.79;101758.16;4771523;30;20434;-82
2021/04/24 05:47:09;;;;;;;12.10;7.90;;;4.60;99.90;;;6.55;67.82;101753.47;4773468;30;20031;-84
2021/04/24 05:54:01;;;;;;;19.98;9.32;;;5.10;99.90;;;7.04;64.36;101766.72;4741246;30;20036;-80
2021/04/24 05:57:05;;;;;;;17.55;9.00;;;5.40;99.90;;;7.27;63.64;101764.88;4745060;30;20039;-81
2021/04/24 05:59:31;;;;;;;14.63;7.43;;;5.50;99.90;;;7.40;62.96;101766.81;4792738;30;20047;-82
2021/04/24 06:01:57;;;;;;;17.10;9.40;;;5.70;99.90;;;7.55;62.38;101768.44;4771278;30;20476;-82
2021/04/24 06:04:24;;;;;;;14.27;8.32;;;5.80;99.90;;;7.60;62.36;101771.97;4771940;30;20073;-84
2021/04/24 06:06:50;;;;;;;15.23;8.85;;;5.90;99.90;;;7.73;62.23;101770.28;4772136;30;20027;-83
2021/04/24 06:09:16;;;;;;;17.45;8.75;;;6.00;99.90;;;7.65;61.60;101771.00;4779587;30;20389;-81
2021/04/24 06:11:43;;;;;;;13.75;7.50;;;6.10;99.90;;;7.93;61.21;101767.03;4772468;30;20028;-84
2021/04/24 06:14:09;;;;;;;16.52;8.65;;;6.30;99.90;;;8.14;61.22;101770.16;4771397;30;20031;-83
2021/04/24 06:16:35;;;;;;;19.75;7.95;;;6.40;99.90;;;8.41;60.43;101767.31;4787352;30;20075;-82
2021/04/24 06:19:01;;;;;;;16.05;7.30;;;6.60;99.90;;;8.66;59.77;101769.44;4776798;30;20106;-81
2021/04/24 06:21:28;;;;;;;16.50;9.00;;;6.80;99.90;;;8.88;59.24;101761.06;4771512;30;20430;-81
2021/04/24 06:23:57;;;;;;;21.92;8.82;;;7.00;99.90;;;8.97;59.28;101775.84;4790855;30;20035;-85
2021/04/24 06:26:26;;;;;;;21.08;9.23;;;7.20;99.90;;;8.93;59.94;101768.44;4786496;30;20040;-79
2021/04/24 06:28:52;;;;;;;19.90;9.75;;;7.30;99.90;;;9.00;59.25;101769.63;4771001;30;20034;-83
2021/04/24 06:31:18;;;;;;;16.58;9.30;;;7.40;99.90;;;9.16;60.61;101775.59;4770780;30;20074;-82
2021/04/24 06:33:44;;;;;;;13.68;7.90;;;7.50;99.90;;;9.56;60.69;101772.78;4771049;30;20034;-82
2021/04/24 06:36:10;;;;;;;19.63;9.27;;;7.80;99.90;;;9.74;58.99;101769.72;4785377;30;20043;-84
2021/04/24 06:38:36;;;;;;;16.17;9.15;;;8.00;99.90;;;9.96;58.50;101782.69;4790741;30;20087;-81
2021/04/24 06:41:03;;;;;;;18.15;9.07;;;8.30;99.90;;;9.57;59.49;101782.81;4773966;30;20141;-80
2021/04/24 06:43:29;;;;;;;19.08;8.00;;;8.30;99.90;;;9.88;58.64;101773.19;4772894;30;20031;-84
2021/04/24 06:46:13;;;;;;;14.07;7.88;;;8.30;99.90;;;9.86;59.72;101769.88;4785913;29;20451;-82
2021/04/24 06:48:39;;;;;;;12.85;6.50;;;8.40;99.90;;;10.25;57.68;101768.94;4775698;30;20035;-81
2021/04/24 06:51:05;;;;;;;17.98;7.65;;;8.60;99.90;;;10.30;57.72;101767.97;4776823;30;20108;-83
2021/04/24 06:53:31;;;;;;;16.20;7.72;;;8.70;99.90;;;10.09;58.73;101762.19;4771217;30;20092;-82
2021/04/24 06:55:57;;;;;;;17.58;7.10;;;8.70;99.90;;;10.30;58.59;101765.19;4786906;30;20403;-82
2021/04/24 06:58:25;;;;;;;14.10;6.57;;;8.80;99.90;;;10.57;58.28;101756.44;4786916;30;20066;-80
2021/04/24 07:00:54;;;;;;;14.38;6.50;;;9.00;99.90;;;10.19;59.33;101764.69;4770636;30;20108;-83
2021/04/24 07:03:22;;;;;;;14.98;5.82;;;8.80;99.90;;;9.81;60.13;101769.22;4786858;30;20043;-82
2021/04/24 07:05:48;;;;;;;13.75;6.30;;;8.60;99.90;;;10.11;59.88;101768.28;4774087;30;20035;-81
2021/04/24 07:13:25;;;;;;;13.05;5.95;;;8.60;99.90;;;9.78;60.61;101764.31;4750649;30;20044;-81
2021/04/24 07:15:57;;;;;;;12.52;5.00;;;8.60;99.90;;;10.31;59.07;101766.81;4708059;30;20091;-81
2021/04/24 07:18:23;;;;;;;11.20;4.90;;;8.80;99.90;;;10.41;58.64;101772.06;4756657;30;20031;-80
2021/04/24 07:20:50;;;;;;;11.15;5.43;;;8.80;99.90;;;10.36;59.62;101775.88;4769876;30;20028;-80
2021/04/24 07:23:16;;;;;;;10.30;4.80;;;8.80;99.90;;;10.20;58.91;101766.34;4787180;30;20035;-82
2021/04/24 07:25:44;;;;;;;12.20;5.55;;;8.90;99.90;;;10.94;57.16;101768.84;4782812;29;20405;-83
2021/04/24 07:28:09;;;;;;;8.25;4.88;;;9.30;99.90;;;11.39;56.00;101774.75;4768457;30;20123;-78
2021/04/24 07:30:36;;;;;;;12.93;5.43;;;9.60;99.90;;;11.59;54.69;101785.19;4779092;29;20058;-83
2021/04/24 07:33:02;;;;;;;9.10;4.32;;;9.80;99.90;;;11.59;54.38;101774.00;4771687;30;20031;-80
2021/04/24 07:35:36;;;;;;;10.63;5.28;;;9.80;99.90;;;11.71;54.21;101765.72;4792793;30;20031;-82
2021/04/24 07:38:03;;;;;;;10.30;4.35;;;10.10;99.90;;;11.96;52.14;101769.50;4783753;30;20038;-84
2021/04/24 07:40:30;;;;;;;10.88;5.28;;;10.30;99.90;;;12.37;52.14;101771.47;4789627;30;20243;-81
2021/04/24 07:42:55;;;;;;;10.75;5.38;;;10.60;99.90;;;12.29;51.73;101759.19;4768733;30;20042;-81
2021/04/24 07:45:25;;;;;;;9.15;4.55;;;10.70;99.90;;;12.84;51.48;101764.41;4769909;30;20031;-81
2021/04/24 07:47:52;;;;;;;10.57;5.13;;;11.10;99.90;;;12.88;51.62;101759.72;4769873;30;20118;-82
2021/04/24 07:50:19;;;;;;;8.63;4.82;;;11.30;99.90;;;13.02;50.40;101756.59;4772442;30;20054;-82
2021/04/24 07:52:46;;;;;;;10.02;4.65;;;11.20;99.90;;;12.20;50.67;101763.22;4785257;30;20115;-81
2021/04/24 07:55:13;;;;;;;11.20;4.68;;;10.70;99.90;;;11.61;52.42;101757.69;4787184;29;20092;-83
2021/04/24 07:57:40;;;;;;;5.72;4.07;;;10.30;99.90;;;11.45;53.11;101751.84;4776159;30;20031;-83
2021/04/24 08:00:09;;;;;;;11.13;5.15;;;9.90;99.90;;;10.69;55.98;101753.78;4785444;30;20131;-81
2021/04/24 08:02:35;;;;;;;9.55;5.07;;;9.50;99.90;;;10.66;56.46;101757.22;4790491;30;20118;-82
2021/04/24 08:05:04;;;;;;;12.35;4.82;;;9.20;99.90;;;11.02;55.66;101743.66;4793082;30;20019;-82
2021/04/24 08:07:33;;;;;;;10.18;5.07;;;9.30;99.90;;;11.76;54.54;101743.13;4777930;30;20033;-82
2021/04/24 08:09:59;;;;;;;13.07;5.28;;;9.90;99.90;;;12.56;51.35;101754.97;4777071;30;20453;-82
2021/04/24 08:12:25;;;;;;;9.02;4.57;;;10.60;99.90;;;12.67;49.12;101751.41;4792574;30;20059;-79
2021/04/24 08:14:51;;;;;;;7.70;4.57;;;11.00;99.90;;;12.71;50.25;101753.50;4774993;30;20043;-79
2021/04/24 08:17:19;;;;;;;13.88;4.93;;;11.00;99.90;;;12.91;51.00;101753.41;4774044;30;20034;-81
2021/04/24 08:19:46;;;;;;;9.40;4.65;;;11.30;99.90;;;12.79;49.82;101756.22;4789410;29;20030;-81
2021/04/24 08:22:12;;;;;;;7.38;4.10;;;11.30;99.90;;;11.93;50.86;101745.81;4776260;30;20055;-81
2021/04/24 08:24:38;;;;;;;7.90;3.55;;;10.70;99.90;;;11.40;52.15;101752.03;4791482;30;20054;-81
2021/04/24 08:27:04;;;;;;;8.52;3.78;;;10.30;99.90;;;11.21;52.50;101748.81;4774129;30;20476;-80
2021/04/24 08:29:30;;;;;;;9.93;4.80;;;9.90;99.90;;;10.94;52.96;101741.72;4775800;30;20042;-82
2021/04/24 08:31:56;;;;;;;12.68;4.30;;;9.60;99.90;;;10.81;53.97;101741.91;4790251;30;20102;-82
2021/04/24 08:34:24;;;;;;;10.55;4.50;;;9.40;99.90;;;10.31;55.62;101739.72;4789560;30;20113;-80
2021/04/24 08:36:52;;;;;;;8.18;4.43;;;9.20;99.90;;;10.60;55.23;101747.38;4790774;30;20322;-83
2021/04/24 08:39:19;;;;;;;11.05;4.88;;;9.20;99.90;;;10.85;54.75;101751.28;4774261;30;20401;-81
2021/04/24 08:41:55;;;;;;;9.10;4.57;;;9.30;99.90;;;11.07;53.88;101742.66;4788407;30;20046;-80
2021/04/24 08:44:21;;;;;;;7.45;4.20;;;9.30;99.90;;;10.92;54.30;101755.19;4773624;30;20035;-83
2021/04/24 08:46:50;;;;;;;9.65;3.92;;;9.30;99.90;;;11.09;53.67;101745.94;4775704;30;20040;-79
2021/04/24 08:49:23;;;;;;;8.85;4.53;;;9.50;99.90;;;11.09;53.53;101741.16;4775626;30;20455;-82
2021/04/24 08:51:51;;;;;;;9.45;4.72;;;9.50;99.90;;;10.98;54.45;101744.66;4788441;30;20035;-80
2021/04/24 08:54:19;;;;;;;10.65;3.90;;;9.50;99.90;;;10.81;54.14;101742.75;4790573;30;20027;-83
2021/04/24 09:04:21;;;;;;;5.75;2.38;;;9.30;99.90;;;11.29;49.09;101730.38;4771040;30;20104;-82
2021/04/24 09:06:47;;;;;;;6.60;2.88;;;9.60;99.90;;;12.00;48.23;101734.06;4776987;30;20465;-82
2021/04/24 09:09:13;;;;;;;6.55;2.80;;;10.10;99.00;;;12.70;46.62;101733.06;4790958;30;20106;-81
2021/04/24 09:11:47;;;;;;;5.80;3.20;;;10.70;95.70;;;12.87;46.15;101732.88;4790982;30;20440;-85
2021/04/24 09:14:17;;;;;;;7.22;3.10;;;11.20;93.80;;;13.22;44.69;101736.09;4790297;30;20049;-83
2021/04/24 09:16:44;;;;;;;5.88;2.90;;;11.40;90.70;;;13.69;44.16;101742.03;4792629;30;20047;-82
2021/04/24 09:19:36;;;;;;;3.88;2.33;;;11.70;88.40;;;13.56;43.23;101740.41;4792644;30;20031;-87
2021/04/24 09:22:22;;;;;;;5.88;2.97;;;12.00;84.00;;;14.20;43.00;101726.34;4791649;30;20043;-83
2021/04/24 09:24:55;;;;;;;7.95;3.05;;;12.30;82.20;;;13.65;43.10;101732.69;4794541;30;20028;-82
2021/04/24 09:27:47;;;;;;;3.75;2.60;;;12.20;79.90;;;13.77;42.58;101734.66;4795121;30;20528;-82
2021/04/24 09:30:32;;;;;;;4.90;2.60;;;12.00;79.90;;;13.31;42.29;101730.38;4793426;30;20035;-84
2021/04/24 09:33:13;;;;;;;4.18;1.95;;;12.00;76.50;;;13.92;42.20;101717.91;4790254;29;20019;-85
2021/04/24 09:35:53;;;;;;;4.90;2.25;;;12.30;76.30;;;14.47;40.89;101730.38;4805931;30;20036;-79
2021/04/24 09:38:32;;;;;;;9.20;2.70;;;12.70;74.30;;;14.80;39.78;101722.47;4805355;30;20039;-82
2021/04/24 09:41:30;;;;;;;4.75;2.13;;;13.10;71.10;;;15.41;38.16;101716.38;4796951;30;20046;-84
2021/04/24 09:44:10;;;;;;;5.43;2.17;;;13.40;69.80;;;15.35;37.92;101721.44;4790590;30;20039;-85
2021/04/24 09:46:58;;;;;;;5.18;2.75;;;13.60;66.80;;;15.43;38.47;101719.63;4798515;30;20552;-81
2021/04/24 09:49:34;;;;;;;3.70;2.10;;;13.80;66.30;;;15.31;37.57;101712.91;4781566;30;20503;-80
2021/04/24 09:52:09;;;;;;;4.82;2.03;;;13.80;64.30;;;16.05;37.11;101713.06;4803182;30;20043;-82
2021/04/24 09:54:42;;;;;;;6.37;2.23;;;14.20;64.90;;;16.48;37.04;101717.56;4795827;30;20039;-83
2021/04/24 09:57:21;;;;;;;3.38;2.20;;;14.40;65.20;;;15.81;37.79;101712.13;4795801;30;20365;-85
2021/04/24 09:59:54;;;;;;;5.38;2.25;;;14.20;64.20;;;15.39;37.38;101704.66;4793577;30;20031;-86
2021/04/24 10:02:40;;;;;;;5.85;1.90;;;14.00;63.30;;;15.83;35.49;101692.03;4777876;30;20449;-88
2021/04/24 10:05:20;;;;;;;7.35;2.00;;;14.00;61.10;;;15.71;37.16;101700.63;4791605;30;20039;-80
2021/04/24 10:07:59;;;;;;;5.53;2.30;;;13.90;62.80;;;15.58;36.63;101701.91;4783107;30;20469;-78
2021/04/24 10:10:33;;;;;;;3.78;1.95;;;13.90;61.90;;;15.90;36.59;101699.84;4776980;30;20034;-84
2021/04/24 10:13:09;;;;;;;4.75;2.40;;;14.10;62.10;;;15.57;37.39;101700.31;4783645;30;20051;-82
2021/04/24 10:15:47;;;;;;;5.22;2.28;;;13.90;62.80;;;15.73;37.04;101710.31;4804086;29;20023;-78
2021/04/24 10:18:17;;;;;;;6.82;3.17;;;14.10;62.00;;;15.73;38.01;101703.91;4792299;29;20048;-84
2021/04/24 10:20:48;;;;;;;4.63;2.15;;;14.20;63.00;;;16.11;37.31;101703.13;4782793;30;20071;-85
2021/04/24 10:23:15;;;;;;;4.28;2.42;;;14.30;62.80;;;15.97;37.68;101698.00;4798066;30;20068;-85
2021/04/24 10:25:42;;;;;;;6.22;2.50;;;14.20;63.00;;;16.28;36.38;101694.19;4791926;30;20039;-85
2021/04/24 10:28:08;;;;;;;4.40;2.58;;;14.40;61.50;;;16.56;37.06;101692.00;4777067;30;20116;-84
2021/04/24 10:30:35;;;;;;;3.92;1.95;;;14.70;63.10;;;16.65;36.09;101694.56;4775527;30;20027;-81
2021/04/24 10:33:03;;;;;;;7.47;2.88;;;14.90;60.30;;;16.51;35.32;101694.25;4777553;30;20116;-82
2021/04/24 10:35:32;;;;;;;6.05;2.72;;;14.80;59.50;;;16.92;36.06;101693.44;4803358;30;20035;-85
2021/04/24 10:38:03;;;;;;;6.22;2.92;;;14.90;60.80;;;17.16;34.61;101687.44;4797191;30;20037;-82
2021/04/24 10:40:29;;;;;;;4.57;2.42;;;15.00;59.00;;;17.54;34.64;101685.59;4784528;30;20043;-80
2021/04/24 10:42:58;;;;;;;5.43;2.63;;;15.30;59.30;;;16.95;35.13;101689.06;4791705;30;20043;-84
2021/04/24 10:46:16;;;;;;;4.55;2.28;;;15.40;58.30;;;17.31;34.44;101683.63;4788702;30;20043;-85